Lower Ranchito, New Mexico
Current Conditions -  °F | °C
As of 8:55 AM on Friday 28 Nov 2014 (Local Time) from KSKX Reporting Station
Clear Clear  
Wind Chill: -6°   Ceiling: Unl
Heat Index: -3°   Visibility: 10mi
Dew Point: -6°   Wind: 5mph
Humidity: 80%   Direction: 360°N
Pressure: 30.32"   Gusts: NA
Location:  36.6959°N, 106.135°W
Report Text: KSKX 281555Z AUTO 36004KT 10SM CLR M03/M06 A3032 RMK AO1
Loading
Personal Weather Stations






























Interactive Weather Map New forecast layout! Learn more

10-Day Weather Forecast

Advertisements
Track Severe Weather on mobile